Time;durP1;ratioP1;P1;durP2;ratioP2;P2;SDS_P1;SDS_P2;PMS_P1;PMS_P2;Temp;Humidity;BMP_temperature;BMP_pressure;BME280_temperature;BME280_humidity;BME280_pressure;Samples;Min_cycle;Max_cycle;Signal;HPM_P1;HPM_P2
2021/04/29 00:00:37;;;;;;;5.13;3.70;;;;;;;14.65;48.05;98723.81;5073569;28;20056;-72
2021/04/29 00:03:05;;;;;;;3.55;2.75;;;;;;;14.70;48.18;98729.09;5073501;28;20057;-72
2021/04/29 00:05:33;;;;;;;4.60;3.00;;;;;;;14.67;48.48;98718.66;5073029;28;20055;-72
2021/04/29 00:07:59;;;;;;;3.80;3.00;;;;;;;14.58;49.05;98727.38;5072834;28;20501;-72
2021/04/29 00:10:31;;;;;;;4.13;3.35;;;;;;;14.64;48.97;98713.03;5073190;28;20397;-73
2021/04/29 00:12:58;;;;;;;5.05;3.00;;;;;;;14.66;48.53;98707.81;5073159;28;20049;-72
2021/04/29 00:15:25;;;;;;;5.97;2.67;;;;;;;14.58;49.14;98710.56;5072619;28;20055;-72
2021/04/29 00:17:53;;;;;;;3.65;3.00;;;;;;;14.54;49.45;98704.06;5073142;28;20052;-72
2021/04/29 00:20:22;;;;;;;3.72;3.15;;;;;;;14.50;49.54;98703.22;5072952;28;20401;-72
2021/04/29 00:22:49;;;;;;;6.47;3.33;;;;;;;14.46;49.66;98696.78;5073406;28;20393;-72
2021/04/29 00:25:16;;;;;;;4.40;3.40;;;;;;;14.41;49.99;98705.56;5072430;28;20048;-72
2021/04/29 00:27:44;;;;;;;4.60;3.03;;;;;;;14.38;50.00;98700.69;5072891;28;20053;-72
2021/04/29 00:30:12;;;;;;;5.32;3.33;;;;;;;14.34;50.09;98720.28;5073469;28;20053;-72
2021/04/29 00:32:39;;;;;;;5.38;3.63;;;;;;;14.28;50.77;98713.41;5072298;28;20402;-72
2021/04/29 00:35:08;;;;;;;3.25;2.83;;;;;;;14.26;50.53;98710.19;5072713;28;20056;-72
2021/04/29 00:37:36;;;;;;;4.35;2.97;;;;;;;14.30;50.63;98715.81;5072769;28;20060;-72
2021/04/29 00:40:05;;;;;;;5.28;3.38;;;;;;;14.27;50.38;98711.00;5072538;28;20056;-72
2021/04/29 00:42:36;;;;;;;5.00;3.17;;;;;;;14.23;50.35;98704.53;5072572;28;20048;-72
2021/04/29 00:45:04;;;;;;;4.75;3.00;;;;;;;14.20;50.68;98712.50;5072780;28;20052;-72
2021/04/29 00:47:31;;;;;;;4.45;3.00;;;;;;;14.23;50.76;98716.53;5074913;28;20079;-72
2021/04/29 00:49:58;;;;;;;3.58;3.03;;;;;;;14.23;50.72;98710.94;5076077;28;20142;-72
2021/04/29 00:52:25;;;;;;;4.28;2.92;;;;;;;14.25;50.42;98704.97;5076784;28;20049;-72
2021/04/29 00:54:55;;;;;;;4.65;2.92;;;;;;;14.20;50.87;98706.91;5075595;28;20052;-72
2021/04/29 00:57:24;;;;;;;5.95;3.15;;;;;;;14.16;50.67;98700.47;5076089;28;20127;-72
2021/04/29 00:59:52;;;;;;;4.35;3.20;;;;;;;14.13;50.53;98706.84;5076216;28;20500;-72
2021/04/29 01:02:19;;;;;;;3.95;2.78;;;;;;;14.06;50.66;98715.13;5076652;28;20049;-72
2021/04/29 01:04:54;;;;;;;4.05;2.83;;;;;;;13.96;50.89;98707.41;5075420;28;20457;-72
2021/04/29 01:07:22;;;;;;;3.53;2.90;;;;;;;13.87;50.73;98704.91;5064363;28;20516;-72
2021/04/29 01:09:56;;;;;;;5.93;2.88;;;;;;;13.83;50.94;98717.25;5076328;28;20052;-72
2021/04/29 01:12:31;;;;;;;3.85;2.97;;;;;;;13.79;50.89;98709.59;5076086;28;20052;-72
2021/04/29 01:14:59;;;;;;;6.03;3.22;;;;;;;13.74;51.21;98700.75;5075620;28;20048;-72
2021/04/29 01:17:27;;;;;;;3.33;2.90;;;;;;;13.71;51.13;98707.91;5076529;28;20044;-72
2021/04/29 01:20:07;;;;;;;4.90;2.70;;;;;;;13.70;51.38;98711.88;5076046;28;20554;-72
2021/04/29 01:22:38;;;;;;;4.38;2.90;;;;;;;13.55;51.74;98707.28;5075589;28;20044;-72
2021/04/29 01:25:08;;;;;;;4.38;2.60;;;;;;;13.62;51.76;98712.16;5075651;28;20049;-72
2021/04/29 01:27:39;;;;;;;4.88;2.90;;;;;;;13.60;51.84;98712.53;5076500;28;20052;-72
2021/04/29 01:30:09;;;;;;;5.93;3.15;;;;;;;13.58;52.02;98718.50;5075296;28;20056;-72
2021/04/29 01:32:37;;;;;;;3.90;2.72;;;;;;;13.60;52.00;98718.94;5076422;28;20057;-72
2021/04/29 01:35:06;;;;;;;5.13;3.10;;;;;;;13.62;51.87;98721.34;5076025;28;20052;-72
2021/04/29 01:37:34;;;;;;;3.75;2.80;;;;;;;13.61;52.20;98716.97;5075613;28;20060;-72
2021/04/29 01:40:02;;;;;;;4.32;2.80;;;;;;;13.56;51.99;98720.06;5075811;28;20135;-72
2021/04/29 01:42:32;;;;;;;5.43;3.15;;;;;;;13.58;52.34;98714.91;5075152;28;20060;-72
2021/04/29 01:45:03;;;;;;;;;;;;;;;13.60;52.03;98716.13;5076302;28;20056;-72
2021/04/29 01:47:32;;;;;;;3.30;2.80;;;;;;;13.63;51.90;98714.59;5075547;28;19935;-72
2021/04/29 01:49:59;;;;;;;7.88;3.78;;;;;;;13.62;51.92;98714.97;5075232;28;20051;-72
2021/04/29 01:52:26;;;;;;;5.03;3.20;;;;;;;13.64;52.04;98713.38;5076565;28;20049;-72
2021/04/29 01:54:53;;;;;;;4.15;3.38;;;;;;;13.63;51.75;98722.16;5075717;28;20052;-72
2021/04/29 01:57:21;;;;;;;4.63;3.30;;;;;;;13.63;52.00;98710.97;5075133;28;20052;-72
2021/04/29 01:59:48;;;;;;;3.88;2.97;;;;;;;13.66;51.75;98719.41;5072442;28;20063;-72
2021/04/29 02:02:16;;;;;;;4.05;2.92;;;;;;;13.65;51.82;98719.78;5074797;28;20053;-72
2021/04/29 02:04:43;;;;;;;5.60;3.03;;;;;;;13.68;51.71;98717.03;5075406;28;20504;-72
2021/04/29 02:07:10;;;;;;;5.70;3.03;;;;;;;13.70;51.67;98720.28;5075176;28;20049;-72
2021/04/29 02:09:37;;;;;;;3.88;2.95;;;;;;;13.70;51.20;98714.69;5074677;28;20052;-72
2021/04/29 02:12:05;;;;;;;5.63;3.05;;;;;;;13.72;51.11;98725.50;5075082;28;20059;-72
2021/04/29 02:14:36;;;;;;;4.13;3.10;;;;;;;13.72;51.15;98729.09;5075083;28;20053;-72
2021/04/29 02:17:11;;;;;;;5.32;3.38;;;;;;;13.72;51.20;98717.91;5075131;28;20075;-72
2021/04/29 02:19:41;;;;;;;4.72;3.05;;;;;;;13.76;50.84;98727.16;5074732;28;20064;-72
2021/04/29 02:22:08;;;;;;;4.50;3.15;;;;;;;13.73;50.87;98716.72;5074770;28;20048;-72
2021/04/29 02:24:37;;;;;;;5.05;3.42;;;;;;;13.74;51.11;98712.72;5074674;28;20052;-72
2021/04/29 02:27:05;;;;;;;7.88;3.40;;;;;;;13.78;50.70;98719.19;5075077;28;20390;-72
2021/04/29 02:29:32;;;;;;;5.22;2.97;;;;;;;13.78;50.44;98723.97;5054997;28;20048;-72
2021/04/29 02:31:59;;;;;;;5.38;2.83;;;;;;;13.78;50.31;98719.19;5054521;28;20501;-72
2021/04/29 02:34:26;;;;;;;4.43;3.33;;;;;;;13.78;50.61;98729.59;5064024;28;20477;-72
2021/04/29 02:36:56;;;;;;;4.40;3.33;;;;;;;13.70;50.80;98717.47;5074543;28;20040;-72
2021/04/29 02:39:22;;;;;;;3.80;3.15;;;;;;;13.70;51.02;98722.28;5074153;28;20045;-72
2021/04/29 02:41:49;;;;;;;4.68;2.83;;;;;;;13.71;51.14;98715.47;5074588;28;20057;-72
2021/04/29 02:44:16;;;;;;;4.40;3.05;;;;;;;13.63;51.46;98714.59;5074689;28;20044;-72
2021/04/29 02:46:43;;;;;;;5.55;3.10;;;;;;;13.65;51.31;98726.22;5073315;28;20044;-72
2021/04/29 02:49:11;;;;;;;5.43;3.65;;;;;;;13.66;51.29;98710.22;5073630;28;20048;-72
2021/04/29 02:51:39;;;;;;;4.90;2.83;;;;;;;13.60;51.20;98720.91;5074750;28;20500;-72
2021/04/29 02:54:08;;;;;;;5.22;3.60;;;;;;;13.62;51.02;98712.16;5074090;28;20469;-73
2021/04/29 02:56:40;;;;;;;4.40;3.15;;;;;;;13.65;51.15;98720.63;5074972;28;20045;-72
2021/04/29 02:59:08;;;;;;;5.28;2.95;;;;;;;13.65;51.23;98725.38;5074245;28;20056;-72
2021/04/29 03:01:35;;;;;;;5.60;3.72;;;;;;;13.63;51.70;98717.38;5074776;28;20045;-72
2021/04/29 03:04:03;;;;;;;4.65;3.53;;;;;;;13.65;51.46;98717.81;5073977;28;20048;-73
2021/04/29 03:06:30;;;;;;;5.93;3.38;;;;;;;13.66;51.53;98713.81;5074490;28;20056;-73
2021/04/29 03:08:58;;;;;;;6.40;3.63;;;;;;;13.69;51.20;98723.44;5074004;28;20048;-73
2021/04/29 03:11:28;;;;;;;5.28;3.30;;;;;;;13.67;52.40;98725.81;5074116;28;20108;-73
2021/04/29 03:13:54;;;;;;;5.68;3.83;;;;;;;13.67;52.10;98728.59;5073612;28;20048;-73
2021/04/29 03:16:21;;;;;;;6.00;3.58;;;;;;;13.58;53.81;98731.69;5073904;28;20504;-73
2021/04/29 03:18:48;;;;;;;6.32;4.13;;;;;;;13.57;54.18;98733.69;5073740;28;20366;-73
2021/04/29 03:21:15;;;;;;;5.97;4.13;;;;;;;13.52;54.74;98733.19;5073971;28;20055;-73
2021/04/29 03:23:42;;;;;;;5.72;4.00;;;;;;;13.36;55.85;98736.97;5074028;28;20049;-73
2021/04/29 03:26:11;;;;;;;5.43;4.60;;;;;;;13.32;57.06;98738.91;5073906;28;20052;-73
2021/04/29 03:28:39;;;;;;;6.68;4.43;;;;;;;13.24;57.20;98731.53;5073314;28;20067;-72
2021/04/29 03:31:06;;;;;;;6.63;4.68;;;;;;;13.19;59.30;98735.47;5073839;28;20056;-72
2021/04/29 03:33:35;;;;;;;6.65;5.07;;;;;;;13.16;59.64;98729.81;5069742;28;20079;-72
2021/04/29 03:36:02;;;;;;;7.18;5.00;;;;;;;12.99;60.16;98734.72;5074204;28;20059;-72
2021/04/29 03:38:29;;;;;;;7.22;5.47;;;;;;;12.91;61.66;98726.59;5073555;28;20062;-72
2021/04/29 03:40:56;;;;;;;6.53;4.97;;;;;;;12.85;61.39;98728.09;5073225;28;20060;-72
2021/04/29 03:43:23;;;;;;;6.18;4.93;;;;;;;12.72;62.91;98733.84;5072483;28;20052;-72
2021/04/29 03:45:51;;;;;;;7.43;4.93;;;;;;;12.66;62.04;98740.13;5073364;28;20063;-72
2021/04/29 03:48:18;;;;;;;6.80;5.13;;;;;;;12.64;61.58;98740.50;5073000;28;20055;-73
2021/04/29 03:50:44;;;;;;;7.05;4.93;;;;;;;12.62;61.73;98742.03;5073380;28;20167;-72
2021/04/29 03:53:11;;;;;;;5.18;4.63;;;;;;;12.64;60.80;98739.69;5073271;28;20045;-72
2021/04/29 03:55:38;;;;;;;6.75;5.10;;;;;;;12.55;60.92;98732.34;5073769;28;20053;-72
2021/04/29 03:58:05;;;;;;;7.13;4.68;;;;;;;12.50;61.49;98741.03;5073513;28;20075;-72
2021/04/29 04:00:33;;;;;;;5.68;4.38;;;;;;;12.57;60.94;98746.75;5073942;28;20048;-72
2021/04/29 04:03:04;;;;;;;5.53;4.40;;;;;;;12.55;59.67;98739.94;5072917;28;20052;-72
2021/04/29 04:05:30;;;;;;;6.40;4.55;;;;;;;12.56;60.19;98742.34;5071365;28;20048;-72
2021/04/29 04:07:57;;;;;;;5.18;4.30;;;;;;;12.55;59.78;98742.72;5073097;28;20064;-72
2021/04/29 04:10:24;;;;;;;7.22;4.35;;;;;;;12.53;60.20;98743.09;5073394;28;20477;-72
2021/04/29 04:12:52;;;;;;;6.70;4.60;;;;;;;12.62;60.07;98740.09;5071364;28;20051;-72
2021/04/29 04:15:18;;;;;;;7.22;4.30;;;;;;;12.68;59.14;98743.34;5072730;28;20048;-73
2021/04/29 04:17:45;;;;;;;5.00;4.43;;;;;;;12.73;58.05;98749.44;5072693;28;20049;-73
2021/04/29 04:20:14;;;;;;;6.15;4.68;;;;;;;12.77;57.45;98749.53;5073160;28;20056;-72
2021/04/29 04:22:41;;;;;;;6.53;4.53;;;;;;;12.77;57.39;98746.72;5075699;28;20048;-72
2021/04/29 04:25:08;;;;;;;5.63;4.88;;;;;;;12.78;57.32;98739.94;5076766;28;20044;-72
2021/04/29 04:27:36;;;;;;;5.93;4.72;;;;;;;12.82;57.52;98740.03;5076799;28;20056;-72
2021/04/29 04:30:03;;;;;;;5.63;4.72;;;;;;;12.81;56.69;98747.59;5075733;28;20045;-72
2021/04/29 04:32:30;;;;;;;5.50;4.03;;;;;;;12.90;55.81;98738.97;5077037;28;20512;-72
2021/04/29 04:34:57;;;;;;;7.28;4.75;;;;;;;12.92;56.22;98743.00;5077222;28;20052;-72
2021/04/29 04:37:25;;;;;;;6.93;4.93;;;;;;;12.93;56.00;98735.41;5076290;28;20052;-72
2021/04/29 04:39:51;;;;;;;9.63;4.70;;;;;;;12.98;55.34;98741.50;5076297;28;20064;-72
2021/04/29 04:42:18;;;;;;;8.43;4.88;;;;;;;13.02;54.86;98749.13;5077308;28;20060;-72
2021/04/29 04:44:45;;;;;;;9.63;4.70;;;;;;;13.03;54.70;98742.38;5074681;28;20048;-72
2021/04/29 04:47:12;;;;;;;5.55;4.90;;;;;;;13.07;54.70;98743.25;5076861;28;20059;-72
2021/04/29 04:49:39;;;;;;;6.65;4.60;;;;;;;13.11;54.40;98749.72;5076346;28;20049;-73
2021/04/29 04:52:06;;;;;;;6.40;4.47;;;;;;;13.19;54.04;98751.44;5076819;28;20064;-73
2021/04/29 04:54:35;;;;;;;7.35;4.72;;;;;;;13.21;53.93;98763.06;5077352;28;20056;-73
2021/04/29 04:57:02;;;;;;;7.72;4.53;;;;;;;13.21;53.97;98757.47;5076293;28;20053;-72
2021/04/29 04:59:29;;;;;;;8.23;4.68;;;;;;;13.22;54.62;98764.66;5076325;28;20052;-72
2021/04/29 05:01:56;;;;;;;6.75;4.65;;;;;;;13.23;53.37;98766.28;5077152;28;20393;-73
2021/04/29 05:04:27;;;;;;;8.25;4.70;;;;;;;13.22;53.82;98778.63;5076820;28;20044;-73
2021/04/29 05:06:54;;;;;;;11.23;5.68;;;;;;;13.24;53.14;98767.09;5077166;28;20067;-72
2021/04/29 05:09:21;;;;;;;7.93;4.72;;;;;;;13.25;53.08;98777.06;5076539;28;20056;-72
2021/04/29 05:11:49;;;;;;;5.90;4.60;;;;;;;13.24;53.20;98775.47;5074662;28;20040;-72
2021/04/29 05:14:16;;;;;;;7.93;5.65;;;;;;;13.27;53.36;98783.94;5074434;28;20044;-72
2021/04/29 05:16:44;;;;;;;7.90;5.65;;;;;;;13.30;53.00;98796.38;5073537;28;20052;-72
2021/04/29 05:19:11;;;;;;;10.80;6.45;;;;;;;13.27;52.96;98789.53;5075711;28;20057;-72
2021/04/29 05:21:38;;;;;;;7.70;5.57;;;;;;;13.31;52.82;98784.84;5076220;28;20056;-72
2021/04/29 05:24:06;;;;;;;8.57;5.38;;;;;;;13.26;53.06;98782.31;5075539;28;20045;-72
2021/04/29 05:26:33;;;;;;;8.13;6.07;;;;;;;13.34;52.63;98788.88;5075718;28;20103;-72
2021/04/29 05:29:00;;;;;;;8.02;5.85;;;;;;;13.36;52.59;98795.69;5076100;28;20063;-72
2021/04/29 05:31:27;;;;;;;7.95;5.75;;;;;;;13.40;52.71;98799.34;5076583;28;20056;-72
2021/04/29 05:33:54;;;;;;;9.73;5.80;;;;;;;13.43;53.13;98791.41;5075899;28;20060;-71
2021/04/29 05:36:21;;;;;;;7.90;5.90;;;;;;;13.48;52.67;98802.25;5076095;28;20056;-71
2021/04/29 05:38:48;;;;;;;8.85;6.13;;;;;;;13.52;52.46;98791.94;5076549;28;20075;-71
2021/04/29 05:41:17;;;;;;;8.82;5.65;;;;;;;13.62;52.46;98799.69;5076424;28;20059;-72
2021/04/29 05:43:46;;;;;;;8.45;6.00;;;;;;;13.69;52.23;98798.97;5077265;28;20048;-72
2021/04/29 05:46:15;;;;;;;6.53;5.47;;;;;;;13.69;51.62;98799.81;5077756;28;20048;-71
2021/04/29 05:48:42;;;;;;;7.30;5.55;;;;;;;13.79;52.14;98807.53;5064642;28;20055;-71
2021/04/29 05:51:11;;;;;;;10.52;7.68;;;;;;;13.77;52.04;98815.53;5072431;28;20044;-71
2021/04/29 05:53:38;;;;;;;13.80;8.57;;;;;;;13.81;51.72;98813.56;5076279;28;20508;-72
2021/04/29 05:56:05;;;;;;;12.25;9.43;;;;;;;13.87;51.78;98832.84;5077734;28;20045;-71
2021/04/29 05:58:33;;;;;;;14.27;10.23;;;;;;;13.91;52.15;98811.31;5077829;28;20060;-72
2021/04/29 06:01:00;;;;;;;14.05;9.70;;;;;;;13.97;51.81;98809.81;5077542;28;20420;-72
2021/04/29 06:03:27;;;;;;;14.68;12.15;;;;;;;14.04;51.87;98818.28;5077844;28;20052;-72
2021/04/29 06:05:55;;;;;;;18.45;13.85;;;;;;;14.20;51.06;98804.13;5078038;28;20052;-72
2021/04/29 06:08:21;;;;;;;19.95;13.50;;;;;;;14.23;51.02;98816.56;5086053;28;20365;-72
2021/04/29 06:10:48;;;;;;;17.30;15.10;;;;;;;14.29;51.12;98815.84;5088026;28;20052;-72
2021/04/29 06:13:15;;;;;;;18.75;15.88;;;;;;;14.40;50.92;98813.16;5079687;28;20059;-72
2021/04/29 06:15:42;;;;;;;19.95;15.23;;;;;;;14.45;50.65;98806.41;5081327;28;20045;-72
2021/04/29 06:18:10;;;;;;;21.70;15.52;;;;;;;14.39;51.08;98808.78;5087177;28;20051;-72
2021/04/29 06:20:37;;;;;;;17.15;14.23;;;;;;;14.45;50.55;98807.25;5085494;28;20055;-72
2021/04/29 06:23:04;;;;;;;20.13;15.85;;;;;;;14.47;50.38;98816.06;5077203;28;20048;-72
2021/04/29 06:25:32;;;;;;;19.83;17.02;;;;;;;14.45;50.83;98812.84;5077976;28;20056;-72
2021/04/29 06:27:59;;;;;;;23.95;18.33;;;;;;;14.56;50.61;98813.00;5077694;28;20048;-72
2021/04/29 06:30:26;;;;;;;26.30;18.52;;;;;;;14.64;50.76;98809.09;5076714;28;20055;-72
2021/04/29 06:32:53;;;;;;;23.67;16.92;;;;;;;14.75;50.10;98814.81;5075410;28;20044;-72
2021/04/29 06:35:19;;;;;;;22.00;18.90;;;;;;;14.78;50.21;98814.03;5072245;28;20059;-72
2021/04/29 06:37:47;;;;;;;22.35;18.42;;;;;;;14.80;49.93;98806.06;5071272;28;20056;-72
2021/04/29 06:40:14;;;;;;;20.40;17.27;;;;;;;14.86;49.59;98810.13;5074432;28;20473;-72
2021/04/29 06:42:42;;;;;;;21.85;18.67;;;;;;;14.76;49.76;98820.06;5075130;28;20048;-72
2021/04/29 06:45:10;;;;;;;23.55;18.77;;;;;;;14.75;50.27;98812.81;5074450;28;20044;-72
2021/04/29 06:47:37;;;;;;;23.95;20.52;;;;;;;14.71;50.37;98828.78;5074138;28;20049;-72
2021/04/29 06:50:04;;;;;;;22.02;18.90;;;;;;;14.61;50.57;98829.47;5074364;28;20049;-73
2021/04/29 06:52:31;;;;;;;22.50;18.77;;;;;;;14.72;50.18;98838.00;5072730;28;20048;-75
2021/04/29 06:54:59;;;;;;;23.15;19.10;;;;;;;14.69;50.10;98835.97;5072594;28;20051;-73
2021/04/29 06:57:26;;;;;;;22.25;18.77;;;;;;;14.60;50.30;98834.28;5072552;28;20060;-71
2021/04/29 06:59:53;;;;;;;21.55;18.70;;;;;;;14.81;49.66;98830.91;5073850;28;20055;-71
2021/04/29 07:02:19;;;;;;;26.63;20.20;;;;;;;15.00;49.63;98832.72;5072984;28;20048;-71
2021/04/29 07:04:46;;;;;;;24.92;18.60;;;;;;;15.11;49.03;98846.03;5072779;28;20057;-71
2021/04/29 07:07:13;;;;;;;25.38;20.27;;;;;;;15.07;49.57;98845.19;5073015;28;20047;-71
2021/04/29 07:09:40;;;;;;;25.80;21.77;;;;;;;15.15;49.05;98842.06;5073362;28;20389;-71
2021/04/29 07:12:08;;;;;;;27.15;21.33;;;;;;;15.34;48.64;98845.88;5068990;28;20044;-71
2021/04/29 07:14:35;;;;;;;28.83;22.48;;;;;;;15.87;46.96;98851.13;5072662;28;20053;-72
2021/04/29 07:17:02;;;;;;;24.75;21.20;;;;;;;16.47;45.50;98844.28;5072203;28;20044;-72
2021/04/29 07:19:29;;;;;;;26.92;22.45;;;;;;;17.23;43.63;98840.53;5072649;28;20044;-72
2021/04/29 07:21:56;;;;;;;27.42;24.40;;;;;;;17.75;42.11;98848.63;5071926;28;20049;-72
2021/04/29 07:24:23;;;;;;;29.73;24.63;;;;;;;18.32;40.37;98846.97;5071929;28;20127;-72
2021/04/29 07:26:50;;;;;;;27.92;24.92;;;;;;;19.22;38.45;98845.38;5071981;28;20056;-72
2021/04/29 07:29:18;;;;;;;31.55;26.00;;;;;;;19.88;36.65;98849.31;5072076;28;20422;-72
2021/04/29 07:31:45;;;;;;;30.13;26.75;;;;;;;19.86;35.78;98852.59;5064211;28;20506;-72
2021/04/29 07:34:13;;;;;;;31.67;27.98;;;;;;;19.00;36.73;98864.47;5072336;28;20053;-72
2021/04/29 07:36:39;;;;;;;35.30;29.38;;;;;;;18.93;37.25;98853.19;5071465;28;20053;-72
2021/04/29 07:39:07;;;;;;;37.17;30.77;;;;;;;18.81;37.18;98862.91;5072579;28;20044;-72
2021/04/29 07:41:34;;;;;;;34.38;30.55;;;;;;;19.06;36.86;98857.13;5072648;28;20056;-73
2021/04/29 07:44:01;;;;;;;34.80;30.85;;;;;;;18.42;37.87;98868.69;5072714;28;20052;-72
2021/04/29 07:46:31;;;;;;;34.80;30.63;;;;;;;18.22;38.50;98879.59;5072457;28;20386;-72
2021/04/29 07:49:00;;;;;;;39.08;33.35;;;;;;;17.74;39.08;98882.81;5072492;28;20056;-72
2021/04/29 07:51:28;;;;;;;36.80;31.35;;;;;;;17.58;39.62;98871.97;5072539;28;20067;-71
2021/04/29 07:53:55;;;;;;;38.63;32.45;;;;;;;17.18;40.42;98885.16;5073230;28;20048;-74
2021/04/29 07:56:24;;;;;;;41.70;35.80;;;;;;;17.02;41.06;98877.06;5071473;28;20044;-72
2021/04/29 07:58:51;;;;;;;40.05;35.53;;;;;;;17.00;41.29;98871.81;5071464;28;20055;-72
2021/04/29 08:01:17;;;;;;;42.58;36.45;;;;;;;16.86;41.07;98879.41;5072032;28;20048;-72
2021/04/29 08:03:45;;;;;;;40.38;35.97;;;;;;;16.73;41.33;98881.75;5071838;28;20056;-72
2021/04/29 08:06:12;;;;;;;42.67;34.00;;;;;;;17.61;39.20;98883.19;5072201;28;20057;-72
2021/04/29 08:08:39;;;;;;;40.92;29.75;;;;;;;18.43;37.41;98892.81;5072284;28;20055;-72
2021/04/29 08:11:07;;;;;;;36.55;30.33;;;;;;;18.93;36.07;98935.00;5072658;28;20050;-72
2021/04/29 08:13:34;;;;;;;43.80;37.10;;;;;;;18.35;37.37;98905.34;5072735;28;20052;-72
2021/04/29 08:16:01;;;;;;;43.33;36.70;;;;;;;19.66;34.96;98888.25;5072597;28;20052;-72
2021/04/29 08:18:28;;;;;;;42.85;37.10;;;;;;;20.60;33.68;98897.53;5071702;28;20489;-72
2021/04/29 08:20:56;;;;;;;41.53;31.08;;;;;;;20.91;31.66;98888.25;5071815;28;20358;-72
2021/04/29 08:23:23;;;;;;;40.58;36.28;;;;;;;20.76;32.18;98904.63;5072105;28;20060;-72
2021/04/29 08:25:50;;;;;;;43.38;38.65;;;;;;;19.86;33.97;98909.09;5071781;28;20472;-72
2021/04/29 08:28:17;;;;;;;44.35;39.63;;;;;;;19.43;34.05;98909.38;5072463;28;20056;-73
2021/04/29 08:30:44;;;;;;;44.63;38.20;;;;;;;20.48;32.27;98912.16;5071883;28;20055;-72
2021/04/29 08:33:11;;;;;;;44.75;40.05;;;;;;;20.58;32.24;98905.63;5072209;28;20053;-73
2021/04/29 08:35:38;;;;;;;44.75;39.05;;;;;;;19.54;34.07;98914.16;5070566;28;20056;-73
2021/04/29 08:38:06;;;;;;;44.03;39.35;;;;;;;19.09;35.10;98919.63;5072209;28;20393;-70
2021/04/29 08:40:33;;;;;;;44.97;39.40;;;;;;;19.87;33.84;98910.69;5071857;28;20375;-73
2021/04/29 08:43:00;;;;;;;41.50;37.08;;;;;;;20.31;33.28;98921.66;5072601;28;20052;-71
2021/04/29 08:45:30;;;;;;;41.10;36.60;;;;;;;19.88;33.53;98917.16;5070877;28;20097;-72
2021/04/29 08:47:59;;;;;;;42.00;37.60;;;;;;;19.02;35.34;98921.28;5072737;28;20048;-71
2021/04/29 08:50:30;;;;;;;46.35;41.35;;;;;;;18.58;36.72;98930.25;5072470;28;20082;-71
2021/04/29 08:52:57;;;;;;;45.95;39.60;;;;;;;18.46;36.85;98931.50;5071687;28;20079;-71
2021/04/29 08:55:28;;;;;;;43.95;39.38;;;;;;;19.22;35.77;98921.59;5071902;28;20059;-70
2021/04/29 08:57:55;;;;;;;41.13;36.72;;;;;;;20.54;33.29;98915.34;5067485;28;20060;-71
2021/04/29 09:00:23;;;;;;;42.22;37.45;;;;;;;19.95;34.66;98919.94;5067627;28;20051;-71
2021/04/29 09:02:50;;;;;;;40.45;36.10;;;;;;;19.74;34.75;98922.91;5072012;28;20049;-72
2021/04/29 09:05:21;;;;;;;40.40;33.67;;;;;;;18.99;36.46;98933.38;5071979;28;20076;-71
2021/04/29 09:07:56;;;;;;;41.25;36.85;;;;;;;18.52;37.15;98932.72;5074112;28;20584;-71
2021/04/29 09:10:26;;;;;;;42.75;37.17;;;;;;;18.59;37.12;98934.69;5075519;28;20048;-72
2021/04/29 09:12:53;;;;;;;40.25;35.72;;;;;;;19.04;36.26;98926.50;5075745;28;20052;-71
2021/04/29 09:15:25;;;;;;;43.88;36.30;;;;;;;21.01;32.00;98918.47;5075944;28;20063;-71
2021/04/29 09:18:04;;;;;;;39.78;35.20;;;;;;;23.46;28.52;98924.44;5075040;28;20071;-71
2021/04/29 09:20:31;;;;;;;36.92;31.40;;;;;;;25.04;25.28;98924.09;5075085;28;20478;-71
2021/04/29 09:22:59;;;;;;;36.40;32.35;;;;;;;27.12;22.03;98923.00;5075093;28;20056;-72
2021/04/29 09:25:27;;;;;;;35.22;31.40;;;;;;;27.98;20.40;98918.09;5075330;28;20055;-73
2021/04/29 09:27:54;;;;;;;30.73;27.52;;;;;;;29.24;18.41;98936.41;5075022;28;20056;-73
2021/04/29 09:30:24;;;;;;;30.05;27.00;;;;;;;29.98;17.47;98922.63;5074610;28;20056;-72
2021/04/29 09:32:52;;;;;;;31.17;28.15;;;;;;;29.17;18.42;98933.84;5075487;28;20059;-72
2021/04/29 09:35:20;;;;;;;29.90;26.52;;;;;;;28.24;18.88;98933.72;5072497;28;20056;-72
2021/04/29 09:37:48;;;;;;;33.30;25.92;;;;;;;27.43;19.23;98935.78;5074559;28;20064;-72
2021/04/29 09:40:25;;;;;;;30.08;27.08;;;;;;;27.79;19.13;98931.50;5074079;28;20512;-73
2021/04/29 09:42:53;;;;;;;30.92;27.58;;;;;;;27.98;18.84;98941.00;5075261;28;20056;-73
2021/04/29 09:45:26;;;;;;;30.00;26.92;;;;;;;27.05;20.36;98931.06;5074066;28;20052;-73
2021/04/29 09:48:01;;;;;;;30.85;27.55;;;;;;;25.71;21.95;98934.72;5074943;28;20056;-73
2021/04/29 09:50:31;;;;;;;28.60;25.65;;;;;;;25.03;21.77;98947.34;5074636;28;20632;-73
2021/04/29 09:52:58;;;;;;;;;;;;;;;25.02;21.79;98937.19;5074815;28;20056;-73
2021/04/29 09:55:29;;;;;;;25.70;22.98;;;;;;;25.51;21.33;98948.41;5074246;28;19921;-74
2021/04/29 09:58:12;;;;;;;26.52;23.73;;;;;;;24.81;21.84;98932.91;5075049;28;20056;-74
2021/04/29 10:00:39;;;;;;;24.88;22.27;;;;;;;23.96;22.44;98948.91;5072184;28;20056;-72
2021/04/29 10:03:07;;;;;;;25.45;22.85;;;;;;;25.35;21.21;98929.34;5073138;28;20497;-72
2021/04/29 10:05:39;;;;;;;23.33;20.83;;;;;;;26.23;19.81;98938.38;5072440;28;20044;-71
2021/04/29 10:08:08;;;;;;;23.92;20.73;;;;;;;26.66;19.31;98919.00;5074462;28;20060;-71
2021/04/29 10:10:36;;;;;;;24.60;22.10;;;;;;;26.41;19.18;98931.25;5073811;28;20053;-72
2021/04/29 10:13:05;;;;;;;21.23;18.63;;;;;;;27.39;17.69;98930.19;5074193;28;20045;-72
2021/04/29 10:15:34;;;;;;;20.65;18.45;;;;;;;28.33;16.58;98930.13;5074109;28;20044;-72
2021/04/29 10:18:01;;;;;;;21.55;19.23;;;;;;;29.87;15.31;98916.63;5074445;28;20056;-73
2021/04/29 10:20:30;;;;;;;20.63;18.48;;;;;;;31.97;13.86;98937.56;5076308;28;20064;-73
2021/04/29 10:23:00;;;;;;;20.42;18.42;;;;;;;33.02;13.80;98930.09;5074934;28;20052;-72
2021/04/29 10:25:32;;;;;;;21.33;19.20;;;;;;;32.19;13.58;98940.00;5073998;28;20045;-72
2021/04/29 10:28:00;;;;;;;23.83;20.38;;;;;;;29.89;15.41;98937.81;5074859;28;20048;-72
2021/04/29 10:30:37;;;;;;;21.85;19.65;;;;;;;28.97;16.92;98929.38;5068571;28;20053;-72
2021/04/29 10:33:16;;;;;;;20.00;17.90;;;;;;;27.60;18.13;98934.28;5070479;28;20137;-72
2021/04/29 10:35:54;;;;;;;21.85;19.35;;;;;;;26.13;19.68;98946.03;5058401;28;20413;-72
2021/04/29 10:38:31;;;;;;;22.53;18.77;;;;;;;26.45;18.93;98938.44;5074433;28;20051;-71
2021/04/29 10:41:03;;;;;;;17.45;15.55;;;;;;;25.66;18.85;98931.63;5073020;28;20060;-71
2021/04/29 10:43:35;;;;;;;16.00;14.40;;;;;;;27.60;16.80;98944.94;5073880;28;20052;-71
2021/04/29 10:46:05;;;;;;;15.20;13.50;;;;;;;28.65;15.49;98931.63;5073398;28;20481;-72
2021/04/29 10:48:34;;;;;;;16.17;12.52;;;;;;;27.11;16.37;98932.84;5073891;28;20052;-72
2021/04/29 10:51:05;;;;;;;;;;;;;;;26.82;17.15;98935.16;5073291;28;20048;-72
2021/04/29 10:53:33;;;;;;;13.07;10.25;;;;;;;25.01;18.56;98936.41;5073899;28;19927;-72
2021/04/29 10:56:03;;;;;;;14.02;12.65;;;;;;;26.03;17.55;98935.78;5071971;28;20063;-72
2021/04/29 10:58:31;;;;;;;14.95;13.40;;;;;;;27.58;16.52;98933.94;5073697;28;20048;-72
2021/04/29 11:01:05;;;;;;;15.98;13.55;;;;;;;29.38;14.98;98930.00;5073081;28;20048;-72
2021/04/29 11:03:35;;;;;;;13.90;12.35;;;;;;;30.24;14.23;98948.81;5070364;28;20056;-73
2021/04/29 11:06:07;;;;;;;15.90;13.55;;;;;;;30.12;13.95;98938.34;5065769;28;20056;-72
2021/04/29 11:08:36;;;;;;;15.82;14.23;;;;;;;31.84;12.76;98923.50;5072992;28;20434;-72
2021/04/29 11:11:04;;;;;;;15.90;14.40;;;;;;;33.23;11.70;98939.53;5072715;28;20048;-74
2021/04/29 11:13:31;;;;;;;16.42;14.73;;;;;;;33.99;11.39;98928.94;5073353;28;20401;-73
2021/04/29 11:15:59;;;;;;;20.00;15.70;;;;;;;33.19;11.62;98930.31;5072384;28;20442;-74
2021/04/29 11:18:27;;;;;;;16.67;15.02;;;;;;;33.33;11.67;98934.41;5073445;28;20048;-74
2021/04/29 11:20:55;;;;;;;16.90;15.30;;;;;;;33.99;11.24;98920.28;5072876;28;20051;-73
2021/04/29 11:23:26;;;;;;;17.38;15.80;;;;;;;34.04;11.53;98916.63;5073551;28;20052;-74
2021/04/29 11:26:04;;;;;;;16.38;14.82;;;;;;;35.33;10.44;98899.06;5059777;28;20071;-74
2021/04/29 11:28:31;;;;;;;15.73;14.30;;;;;;;35.10;11.03;98916.38;5073173;28;20469;-73
2021/04/29 11:30:59;;;;;;;14.15;12.70;;;;;;;32.43;12.01;98941.94;5072836;28;20048;-74